createdAt,value
2018-12-11T00:01:12.011Z,70.68
2018-12-11T00:03:42.627Z,71.14
2018-12-11T00:06:11.394Z,71.36
2018-12-11T00:08:40.111Z,70.44
2018-12-11T00:11:08.931Z,70.30
2018-12-11T00:13:37.598Z,70.01
2018-12-11T00:16:06.327Z,69.37
2018-12-11T00:18:35.035Z,70.81
2018-12-11T00:21:03.758Z,69.96
2018-12-11T00:23:32.419Z,70.00
2018-12-11T00:26:01.086Z,71.13
2018-12-11T00:28:29.743Z,71.68
2018-12-11T00:30:58.450Z,70.96
2018-12-11T00:33:27.139Z,70.74
2018-12-11T00:35:55.846Z,71.10
2018-12-11T00:38:24.566Z,70.88
2018-12-11T00:40:53.230Z,70.48
2018-12-11T00:43:21.954Z,70.73
2018-12-11T00:45:50.679Z,70.01
2018-12-11T00:48:19.395Z,69.98
2018-12-11T00:50:48.158Z,69.35
2018-12-11T00:53:16.895Z,69.73
2018-12-11T00:55:45.599Z,69.71
2018-12-11T00:58:14.384Z,71.13
2018-12-11T01:00:43.147Z,71.21
2018-12-11T01:03:11.879Z,71.47
2018-12-11T01:05:40.596Z,70.97
2018-12-11T01:08:09.295Z,70.15
2018-12-11T01:10:38.016Z,70.67
2018-12-11T01:13:06.791Z,71.24
2018-12-11T01:15:35.506Z,70.23
2018-12-11T01:18:04.210Z,69.52
2018-12-11T01:20:32.930Z,70.09
2018-12-11T01:23:01.667Z,70.03
2018-12-11T01:25:30.362Z,70.31
2018-12-11T01:27:58.994Z,70.65
2018-12-11T01:30:27.736Z,70.07
2018-12-11T01:32:56.460Z,70.37
2018-12-11T01:35:25.186Z,69.73
2018-12-11T01:37:53.906Z,70.34
2018-12-11T01:40:22.672Z,69.62
2018-12-11T01:42:51.345Z,69.50
2018-12-11T01:45:20.055Z,69.87
2018-12-11T01:47:48.770Z,70.28
2018-12-11T01:50:17.463Z,70.49
2018-12-11T01:52:46.220Z,69.93
2018-12-11T01:55:15.006Z,70.30
2018-12-11T01:57:43.722Z,69.88
2018-12-11T02:00:12.454Z,69.89
2018-12-11T02:02:41.234Z,70.05
2018-12-11T02:05:09.618Z,70.02
2018-12-11T02:07:38.331Z,70.41
2018-12-11T02:10:07.171Z,70.34
2018-12-11T02:12:35.874Z,70.24
2018-12-11T02:15:05.862Z,70.55
2018-12-11T02:17:34.594Z,70.36
2018-12-11T02:20:03.689Z,69.50
2018-12-11T02:22:32.443Z,68.91
2018-12-11T02:25:01.182Z,70.40
2018-12-11T02:27:30.964Z,69.87
2018-12-11T02:29:59.767Z,70.04
2018-12-11T02:32:28.531Z,70.26
2018-12-11T02:34:57.203Z,69.81
2018-12-11T02:37:25.914Z,69.22
2018-12-11T02:39:54.639Z,69.22
2018-12-11T02:42:23.341Z,70.88
2018-12-11T02:44:52.049Z,70.03
2018-12-11T02:47:20.777Z,69.45
2018-12-11T02:49:49.488Z,69.47
2018-12-11T02:52:18.218Z,68.94
2018-12-11T02:54:46.966Z,69.39
2018-12-11T02:57:15.752Z,69.71
2018-12-11T02:59:44.497Z,69.18
2018-12-11T03:02:13.264Z,69.09
2018-12-11T03:04:41.999Z,69.21
2018-12-11T03:07:10.711Z,69.13
2018-12-11T03:09:39.428Z,68.79
2018-12-11T03:12:08.280Z,69.25
2018-12-11T03:14:37.008Z,69.06
2018-12-11T03:17:05.726Z,69.75
2018-12-11T03:19:34.415Z,69.62
2018-12-11T03:22:03.195Z,69.27
2018-12-11T03:24:31.874Z,70.10
2018-12-11T03:27:00.597Z,69.30
2018-12-11T03:29:29.296Z,70.15
2018-12-11T03:37:51.966Z,69.60
2018-12-11T03:40:20.673Z,69.80
2018-12-11T03:42:49.377Z,69.04
2018-12-11T03:45:18.160Z,69.12
2018-12-11T03:47:46.974Z,69.62
2018-12-11T03:50:15.880Z,69.85
2018-12-11T03:52:44.728Z,69.43
2018-12-11T03:55:13.463Z,69.84
2018-12-11T03:57:42.197Z,69.20
2018-12-11T04:00:11.050Z,69.69
2018-12-11T04:02:39.808Z,69.55
2018-12-11T04:05:08.724Z,69.24
2018-12-11T04:07:37.441Z,70.42
2018-12-11T04:10:07.737Z,70.04
2018-12-11T04:12:36.508Z,69.09
2018-12-11T04:15:05.623Z,68.79
2018-12-11T04:17:34.386Z,68.75
2018-12-11T04:20:03.397Z,68.61
2018-12-11T04:22:32.074Z,69.57
2018-12-11T04:25:00.804Z,69.75
2018-12-11T04:27:29.478Z,69.79
2018-12-11T04:29:58.271Z,69.45
2018-12-11T04:32:26.939Z,69.26
2018-12-11T04:34:55.681Z,69.08
2018-12-11T04:37:24.475Z,69.76
2018-12-11T04:39:53.146Z,69.97
2018-12-11T04:42:21.893Z,70.01
2018-12-11T04:44:50.572Z,71.03
2018-12-11T04:47:19.303Z,69.90
2018-12-11T04:49:48.059Z,69.98
2018-12-11T04:52:16.774Z,70.10
2018-12-11T04:54:45.508Z,70.01
2018-12-11T04:57:14.232Z,70.32
2018-12-11T04:59:42.883Z,71.42
2018-12-11T05:02:11.615Z,71.66
2018-12-11T05:04:40.343Z,71.76
2018-12-11T05:07:09.034Z,69.91
2018-12-11T05:09:37.749Z,70.63
2018-12-11T05:12:06.530Z,70.12
2018-12-11T05:14:35.182Z,70.15
2018-12-11T05:17:04.103Z,70.83
2018-12-11T05:19:32.829Z,69.88
2018-12-11T05:22:01.488Z,71.19
2018-12-11T05:24:30.223Z,69.56
2018-12-11T05:26:58.950Z,69.54
2018-12-11T05:29:27.627Z,70.24
2018-12-11T05:31:56.335Z,70.91
2018-12-11T05:34:25.009Z,70.38
2018-12-11T05:36:53.912Z,70.05
2018-12-11T05:39:22.657Z,69.68
2018-12-11T05:41:51.395Z,71.01
2018-12-11T05:44:20.151Z,70.65
2018-12-11T05:46:49.619Z,71.04
2018-12-11T05:49:18.289Z,71.45
2018-12-11T05:51:47.035Z,71.92
2018-12-11T05:54:15.758Z,72.70
2018-12-11T05:56:45.523Z,72.56
2018-12-11T05:59:14.307Z,72.06
2018-12-11T06:01:43.078Z,72.31
2018-12-11T06:04:11.843Z,71.92
2018-12-11T06:06:40.606Z,71.48
2018-12-11T06:09:09.362Z,71.75
2018-12-11T06:11:38.214Z,72.40
2018-12-11T06:14:06.903Z,72.79
2018-12-11T06:16:35.826Z,72.20
2018-12-11T06:19:04.575Z,72.24
2018-12-11T06:21:33.276Z,72.03
2018-12-11T06:24:01.966Z,71.99
2018-12-11T06:26:30.694Z,72.07
2018-12-11T06:28:59.406Z,71.86
2018-12-11T06:31:28.215Z,72.43
2018-12-11T06:33:56.894Z,72.27
2018-12-11T06:36:25.660Z,71.88
2018-12-11T06:38:54.350Z,72.50
2018-12-11T06:41:23.080Z,72.42
2018-12-11T06:43:51.810Z,72.12
2018-12-11T06:46:20.563Z,72.20
2018-12-11T06:48:49.306Z,72.75
2018-12-11T06:51:18.086Z,72.41
2018-12-11T06:53:47.706Z,71.14
2018-12-11T06:56:16.474Z,71.46
2018-12-11T06:58:45.214Z,71.52
2018-12-11T07:01:14.001Z,71.26
2018-12-11T07:03:42.757Z,70.96
2018-12-11T07:06:11.497Z,71.81
2018-12-11T07:08:40.205Z,71.57
2018-12-11T07:11:08.892Z,72.06
2018-12-11T07:13:37.627Z,71.90
2018-12-11T07:16:07.287Z,71.39
2018-12-11T07:18:35.955Z,70.70
2018-12-11T07:21:04.750Z,71.07
2018-12-11T07:23:33.530Z,71.76
2018-12-11T07:26:02.230Z,71.13
2018-12-11T07:28:31.051Z,71.61
2018-12-11T07:30:59.846Z,70.90
2018-12-11T07:33:28.579Z,71.48
2018-12-11T07:35:57.324Z,70.95
2018-12-11T07:38:26.446Z,70.81
2018-12-11T07:40:55.194Z,70.44
2018-12-11T07:43:23.906Z,69.79
2018-12-11T07:45:52.644Z,70.76
2018-12-11T07:48:21.358Z,70.79
2018-12-11T07:50:50.063Z,70.77
2018-12-11T07:53:18.782Z,70.44
2018-12-11T07:55:47.538Z,70.66
2018-12-11T07:58:16.279Z,70.45
2018-12-11T08:00:45.867Z,70.79
2018-12-11T08:03:14.542Z,70.21
2018-12-11T08:05:43.211Z,70.95
2018-12-11T08:08:16.109Z,70.48
2018-12-11T08:10:44.968Z,70.13
2018-12-11T08:13:13.739Z,71.24
2018-12-11T08:15:42.479Z,70.98
2018-12-11T08:18:11.231Z,70.31
2018-12-11T08:20:39.967Z,70.65
2018-12-11T08:23:08.639Z,70.77
2018-12-11T08:25:37.327Z,69.71
2018-12-11T08:28:06.067Z,69.78
2018-12-11T08:30:34.730Z,70.96
2018-12-11T08:33:03.468Z,70.97
2018-12-11T08:35:32.222Z,70.50
2018-12-11T08:38:00.930Z,71.26
2018-12-11T08:40:29.646Z,70.94
2018-12-11T08:42:58.335Z,70.66
2018-12-11T08:45:27.072Z,70.36
2018-12-11T08:47:56.379Z,70.34
2018-12-11T08:50:25.107Z,70.13
2018-12-11T08:52:53.803Z,69.49
2018-12-11T08:55:22.479Z,69.62
2018-12-11T08:57:51.254Z,69.27
2018-12-11T09:00:19.977Z,69.83
2018-12-11T09:02:48.618Z,69.55
2018-12-11T09:05:17.330Z,69.80
2018-12-11T09:07:46.050Z,69.29
2018-12-11T09:12:57.137Z,69.62
2018-12-11T09:15:25.852Z,69.49
2018-12-11T09:17:54.511Z,70.05
2018-12-11T09:20:23.242Z,69.46
2018-12-11T09:22:51.951Z,69.67
2018-12-11T09:25:20.671Z,68.86
2018-12-11T09:27:49.414Z,69.18
2018-12-11T09:30:18.192Z,68.97
2018-12-11T09:32:46.887Z,68.78
2018-12-11T09:35:16.590Z,68.24
2018-12-11T09:37:45.242Z,68.44
2018-12-11T09:40:14.009Z,69.74
2018-12-11T09:42:44.095Z,69.00
2018-12-11T09:45:12.868Z,68.41
2018-12-11T09:47:41.604Z,68.29
2018-12-11T09:50:10.337Z,69.24
2018-12-11T09:52:39.153Z,69.06
2018-12-11T09:55:07.999Z,68.51
2018-12-11T09:57:36.675Z,68.85
2018-12-11T10:00:07.195Z,68.97
2018-12-11T10:02:36.011Z,68.71
2018-12-11T10:05:05.098Z,68.09
2018-12-11T10:07:33.851Z,68.45
2018-12-11T10:10:02.591Z,68.33
2018-12-11T10:12:31.296Z,69.38
2018-12-11T10:14:59.979Z,69.34
2018-12-11T10:17:28.710Z,68.56
2018-12-11T10:19:57.570Z,68.44
2018-12-11T10:22:26.407Z,68.59
2018-12-11T10:24:55.186Z,68.13
2018-12-11T10:27:23.969Z,68.32
2018-12-11T10:29:52.719Z,67.88
2018-12-11T10:32:21.514Z,68.80
2018-12-11T10:34:50.200Z,68.42
2018-12-11T10:37:18.993Z,67.50
2018-12-11T10:39:47.758Z,67.91
2018-12-11T10:42:16.511Z,67.69
2018-12-11T10:44:45.291Z,67.89
2018-12-11T10:47:14.048Z,67.61
2018-12-11T10:49:42.799Z,67.86
2018-12-11T10:52:11.543Z,67.42
2018-12-11T10:54:40.321Z,68.02
2018-12-11T10:57:09.034Z,67.29
2018-12-11T10:59:37.739Z,67.20
2018-12-11T11:02:11.911Z,67.21
2018-12-11T11:04:40.642Z,66.95
2018-12-11T11:07:09.387Z,67.30
2018-12-11T11:09:38.125Z,67.68
2018-12-11T11:12:06.923Z,67.01
2018-12-11T11:14:35.800Z,66.79
2018-12-11T11:17:04.668Z,67.23
2018-12-11T11:19:33.411Z,67.93
2018-12-11T11:22:02.174Z,67.60
2018-12-11T11:24:30.896Z,67.07
2018-12-11T11:26:59.567Z,67.59
2018-12-11T11:29:28.305Z,66.99
2018-12-11T11:31:57.050Z,67.28
2018-12-11T11:34:25.825Z,66.93
2018-12-11T11:36:54.871Z,66.76
2018-12-11T11:39:23.543Z,66.44
2018-12-11T11:41:52.295Z,66.46
2018-12-11T11:44:20.999Z,67.20
2018-12-11T11:46:49.743Z,66.42
2018-12-11T11:49:19.567Z,65.99
2018-12-11T11:51:48.379Z,65.74
2018-12-11T11:54:17.059Z,65.81
2018-12-11T11:56:45.734Z,65.84
2018-12-11T11:59:14.415Z,65.06
2018-12-11T12:01:43.178Z,65.59
2018-12-11T12:04:11.903Z,66.22
2018-12-11T12:06:40.670Z,65.41
2018-12-11T12:09:09.446Z,65.28
2018-12-11T12:11:39.270Z,66.05
2018-12-11T12:14:08.070Z,66.79
2018-12-11T12:16:36.801Z,65.57
2018-12-11T12:19:05.531Z,65.77
2018-12-11T12:21:34.204Z,65.25
2018-12-11T12:24:02.972Z,65.30
2018-12-11T12:26:31.715Z,65.39
2018-12-11T12:29:00.396Z,66.00
2018-12-11T12:31:29.395Z,64.98
2018-12-11T12:33:58.116Z,66.25
2018-12-11T12:36:26.839Z,66.55
2018-12-11T12:38:55.597Z,66.05
2018-12-11T12:41:24.355Z,65.97
2018-12-11T12:43:54.076Z,66.27
2018-12-11T12:46:23.713Z,66.03
2018-12-11T12:48:53.390Z,65.73
2018-12-11T12:51:23.646Z,65.22
2018-12-11T12:53:53.341Z,65.37
2018-12-11T12:56:23.005Z,64.62
2018-12-11T12:58:52.701Z,64.13
2018-12-11T13:01:22.173Z,64.62
2018-12-11T13:03:52.501Z,65.70
2018-12-11T13:06:22.304Z,65.27
2018-12-11T13:08:56.438Z,65.31
2018-12-11T13:11:26.579Z,65.39
2018-12-11T13:13:56.253Z,65.64
2018-12-11T13:16:26.161Z,65.65
2018-12-11T13:18:55.902Z,66.19
2018-12-11T13:21:26.304Z,67.28
2018-12-11T13:23:55.946Z,66.96
2018-12-11T13:26:25.485Z,66.54
2018-12-11T13:28:55.155Z,66.60
2018-12-11T13:31:25.279Z,66.49
2018-12-11T13:33:55.422Z,66.40
2018-12-11T13:36:31.871Z,66.66
2018-12-11T13:38:57.189Z,66.17
2018-12-11T13:41:26.741Z,65.82
2018-12-11T13:43:56.893Z,66.48
2018-12-11T13:46:26.300Z,66.33
2018-12-11T13:48:55.895Z,66.12
2018-12-11T13:51:25.995Z,66.61
2018-12-11T13:53:55.564Z,66.59
2018-12-11T13:56:25.495Z,66.81
2018-12-11T13:58:54.897Z,67.11
2018-12-11T14:01:24.519Z,67.10
2018-12-11T14:03:54.596Z,67.14
2018-12-11T14:06:24.174Z,67.07
2018-12-11T14:08:53.583Z,66.99
2018-12-11T14:11:23.308Z,67.78
2018-12-11T14:13:52.975Z,67.33
2018-12-11T14:16:22.676Z,67.05
2018-12-11T14:18:52.225Z,66.25
2018-12-11T14:21:21.875Z,66.93
2018-12-11T14:23:51.411Z,66.26
2018-12-11T14:26:21.005Z,67.00
2018-12-11T14:28:50.574Z,66.67
2018-12-11T14:31:20.340Z,66.08
2018-12-11T14:33:50.309Z,66.09
2018-12-11T14:36:19.870Z,67.08
2018-12-11T14:38:51.441Z,67.46
2018-12-11T14:41:21.108Z,67.85
2018-12-11T14:43:50.607Z,67.53
2018-12-11T14:46:21.133Z,67.28
2018-12-11T14:48:50.666Z,66.46
2018-12-11T14:51:20.396Z,66.78
2018-12-11T14:53:49.915Z,66.74
2018-12-11T14:56:19.640Z,65.88
2018-12-11T14:58:49.214Z,66.23
2018-12-11T15:01:18.911Z,65.51
2018-12-11T15:03:49.094Z,65.63
2018-12-11T15:06:18.340Z,65.70
2018-12-11T15:08:47.855Z,65.61
2018-12-11T15:11:17.346Z,65.57
2018-12-11T15:13:46.962Z,66.67
2018-12-11T15:16:15.675Z,65.54
2018-12-11T15:18:44.345Z,65.12
2018-12-11T15:21:13.180Z,64.54
2018-12-11T15:23:42.107Z,64.15
2018-12-11T15:26:10.772Z,63.44
2018-12-11T15:28:39.539Z,63.19
2018-12-11T15:31:10.406Z,63.27
2018-12-11T15:33:39.110Z,62.64
2018-12-11T15:36:07.847Z,62.68
2018-12-11T15:38:36.637Z,63.00
2018-12-11T15:41:05.362Z,62.52
2018-12-11T15:43:34.025Z,62.06
2018-12-11T15:46:02.743Z,61.89
2018-12-11T15:48:31.506Z,62.37
2018-12-11T15:51:00.219Z,61.52
2018-12-11T15:53:28.981Z,61.59
2018-12-11T15:55:57.691Z,61.49
2018-12-11T15:58:26.404Z,61.80
2018-12-11T16:00:55.145Z,61.48
2018-12-11T16:03:23.811Z,62.20
2018-12-11T16:05:52.523Z,63.10
2018-12-11T16:08:21.202Z,62.38
2018-12-11T16:10:49.930Z,62.53
2018-12-11T16:13:18.611Z,63.03
2018-12-11T16:15:48.202Z,61.65
2018-12-11T16:18:16.934Z,61.51
2018-12-11T16:20:45.678Z,61.90
2018-12-11T16:23:14.422Z,60.63
2018-12-11T16:25:43.171Z,60.51
2018-12-11T16:28:11.918Z,60.32
2018-12-11T16:30:40.699Z,59.99
2018-12-11T16:33:09.455Z,59.98
2018-12-11T16:35:38.152Z,59.60
2018-12-11T16:38:06.947Z,60.47
2018-12-11T16:40:35.771Z,60.35
2018-12-11T16:43:04.547Z,59.85
2018-12-11T16:45:33.279Z,59.95
2018-12-11T16:48:02.031Z,59.94
2018-12-11T16:50:30.762Z,58.90
2018-12-11T16:52:59.708Z,58.76
2018-12-11T16:55:28.502Z,70.70
2018-12-11T16:57:57.307Z,57.69
2018-12-11T17:00:26.030Z,55.33
2018-12-11T17:02:54.785Z,55.72
2018-12-11T17:05:23.552Z,55.67
2018-12-11T17:07:52.328Z,56.07
2018-12-11T17:10:21.034Z,56.80
2018-12-11T17:12:49.817Z,57.15
2018-12-11T17:15:23.859Z,57.75
2018-12-11T17:17:52.625Z,57.68
2018-12-11T17:20:21.395Z,57.36
2018-12-11T17:22:50.099Z,58.00
2018-12-11T17:25:18.826Z,58.34
2018-12-11T17:27:47.619Z,58.36
2018-12-11T17:30:16.279Z,59.03
2018-12-11T17:32:44.975Z,58.77
2018-12-11T17:35:13.755Z,59.09
2018-12-11T17:37:42.478Z,57.93
2018-12-11T17:40:11.266Z,58.83
2018-12-11T17:42:39.974Z,58.36
2018-12-11T17:45:08.698Z,58.28
2018-12-11T17:47:37.422Z,57.98
2018-12-11T17:50:07.585Z,58.40
2018-12-11T17:52:36.299Z,58.10
2018-12-11T17:55:05.314Z,58.68
2018-12-11T17:57:34.057Z,57.63
2018-12-11T18:00:04.041Z,57.65
2018-12-11T18:02:36.555Z,57.75
2018-12-11T18:05:06.287Z,57.93
2018-12-11T18:07:34.967Z,57.86
2018-12-11T18:10:05.030Z,58.72
2018-12-11T18:12:33.775Z,58.73
2018-12-11T18:15:02.578Z,58.74
2018-12-11T18:17:31.299Z,58.44
2018-12-11T18:20:00.047Z,59.22
2018-12-11T18:22:28.767Z,59.33
2018-12-11T18:24:57.492Z,59.30
2018-12-11T18:27:26.253Z,58.87
2018-12-11T18:29:55.095Z,58.78
2018-12-11T18:32:25.188Z,59.82
2018-12-11T18:34:54.405Z,59.23
2018-12-11T18:37:23.391Z,59.59
2018-12-11T18:39:52.201Z,59.01
2018-12-11T18:42:20.996Z,59.45
2018-12-11T18:44:49.745Z,59.32
2018-12-11T18:47:18.484Z,59.83
2018-12-11T18:49:47.258Z,60.21
2018-12-11T18:52:15.981Z,60.36
2018-12-11T18:54:45.598Z,59.87
2018-12-11T18:57:14.270Z,59.98
2018-12-11T18:59:43.015Z,59.67
2018-12-11T19:02:11.739Z,60.49
2018-12-11T19:04:40.518Z,61.04
2018-12-11T19:07:09.259Z,60.36
2018-12-11T19:09:39.895Z,61.09
2018-12-11T19:12:08.690Z,61.99
2018-12-11T19:14:37.407Z,61.28
2018-12-11T19:17:08.072Z,61.79
2018-12-11T19:19:37.583Z,61.68
2018-12-11T19:22:06.244Z,61.32
2018-12-11T19:24:45.767Z,61.00
2018-12-11T19:27:14.488Z,61.58
2018-12-11T19:29:43.168Z,60.93
2018-12-11T19:32:13.920Z,60.99
2018-12-11T19:34:42.699Z,61.00
2018-12-11T19:37:11.423Z,61.17
2018-12-11T19:39:40.186Z,60.34
2018-12-11T19:42:09.210Z,60.75
2018-12-11T19:44:38.022Z,61.13
2018-12-11T19:47:06.787Z,60.83
2018-12-11T19:49:36.603Z,61.33
2018-12-11T19:52:05.672Z,61.31
2018-12-11T19:54:34.343Z,61.44
2018-12-11T19:57:03.167Z,61.06
2018-12-11T19:59:33.078Z,61.27
2018-12-11T20:02:01.861Z,61.15
2018-12-11T20:04:30.522Z,60.96
2018-12-11T20:06:59.226Z,61.32
2018-12-11T20:09:28.019Z,61.28
2018-12-11T20:11:56.711Z,60.80
2018-12-11T20:14:25.406Z,61.09
2018-12-11T20:16:54.303Z,60.26
2018-12-11T20:19:23.098Z,60.57
2018-12-11T20:21:51.861Z,60.00
2018-12-11T20:24:20.691Z,59.99
2018-12-11T20:26:49.447Z,59.72
2018-12-11T20:29:18.154Z,59.82
2018-12-11T20:31:46.839Z,60.29
2018-12-11T20:34:15.619Z,59.59
2018-12-11T20:36:44.699Z,59.91
2018-12-11T20:39:13.379Z,59.29
2018-12-11T20:41:42.099Z,59.85
2018-12-11T20:44:10.852Z,59.33
2018-12-11T20:46:39.563Z,59.36
2018-12-11T20:49:08.315Z,59.76
2018-12-11T20:51:37.015Z,59.70
2018-12-11T20:54:05.727Z,59.99
2018-12-11T20:56:34.473Z,60.31
2018-12-11T20:59:03.908Z,60.65
2018-12-11T21:01:32.579Z,59.63
2018-12-11T21:04:01.274Z,59.67
2018-12-11T21:06:29.970Z,60.51
2018-12-11T21:08:58.772Z,59.86
2018-12-11T21:11:27.556Z,60.33
2018-12-11T21:13:56.248Z,60.40
2018-12-11T21:16:25.106Z,59.92
2018-12-11T21:18:53.971Z,60.33
2018-12-11T21:21:23.240Z,60.75
2018-12-11T21:23:51.955Z,61.07
2018-12-11T21:26:20.674Z,60.98
2018-12-11T21:28:49.394Z,61.22
2018-12-11T21:31:18.139Z,61.29
2018-12-11T21:33:46.871Z,61.06
2018-12-11T21:36:15.610Z,61.85
2018-12-11T21:38:44.378Z,61.96
2018-12-11T21:41:13.078Z,61.22
2018-12-11T21:43:42.786Z,62.04
2018-12-11T21:46:11.505Z,61.64
2018-12-11T21:48:40.202Z,61.68
2018-12-11T21:51:08.912Z,61.79
2018-12-11T21:53:37.610Z,62.23
2018-12-11T21:56:06.371Z,62.56
2018-12-11T21:58:35.090Z,62.66
2018-12-11T22:01:05.092Z,62.76
2018-12-11T22:03:33.834Z,62.93
2018-12-11T22:06:02.943Z,62.77
2018-12-11T22:08:31.659Z,62.52
2018-12-11T22:11:00.379Z,62.84
2018-12-11T22:13:29.143Z,63.13
2018-12-11T22:15:57.866Z,63.09
2018-12-11T22:18:26.583Z,62.76
2018-12-11T22:20:55.343Z,63.38
2018-12-11T22:23:24.086Z,63.30
2018-12-11T22:25:52.787Z,63.31
2018-12-11T22:28:21.518Z,63.29
2018-12-11T22:30:50.225Z,63.12
2018-12-11T22:33:18.949Z,63.79
2018-12-11T22:35:47.691Z,63.58
2018-12-11T22:38:16.403Z,64.07
2018-12-11T22:40:45.109Z,64.24
2018-12-11T22:43:13.811Z,64.36
2018-12-11T22:45:42.528Z,64.60
2018-12-11T22:48:11.228Z,64.32
2018-12-11T22:50:39.987Z,64.12
2018-12-11T22:53:08.700Z,64.80
2018-12-11T22:55:37.487Z,63.80
2018-12-11T22:58:06.134Z,64.16
2018-12-11T23:00:34.876Z,63.78
2018-12-11T23:03:05.574Z,63.54
2018-12-11T23:05:34.291Z,64.31
2018-12-11T23:08:02.954Z,63.36
2018-12-11T23:10:31.639Z,63.66
2018-12-11T23:13:00.323Z,63.98
2018-12-11T23:15:29.014Z,63.76
2018-12-11T23:17:57.774Z,63.14
2018-12-11T23:20:26.517Z,63.33
2018-12-11T23:22:55.242Z,63.52
2018-12-11T23:25:23.937Z,63.25
2018-12-11T23:27:52.611Z,63.26
2018-12-11T23:30:21.339Z,64.06
2018-12-11T23:32:49.991Z,64.09
2018-12-11T23:35:18.690Z,63.90
2018-12-11T23:37:47.391Z,64.48
2018-12-11T23:40:16.041Z,64.64
2018-12-11T23:42:44.695Z,64.81
2018-12-11T23:45:13.418Z,64.49
2018-12-11T23:47:42.111Z,65.19
2018-12-11T23:50:10.819Z,66.09
2018-12-11T23:52:39.518Z,65.56
2018-12-11T23:55:08.281Z,65.57
2018-12-11T23:57:36.979Z,66.10
